createdAt,value
2023-05-09T00:02:08.532Z,101990.69
2023-05-09T00:04:36.690Z,101995.25
2023-05-09T00:07:04.634Z,101985.22
2023-05-09T00:09:32.558Z,101982.41
2023-05-09T00:12:02.613Z,101979.13
2023-05-09T00:14:30.554Z,101984.97
2023-05-09T00:16:59.309Z,101978.13
2023-05-09T00:19:27.216Z,101972.88
2023-05-09T00:21:55.628Z,101955.34
2023-05-09T00:24:23.631Z,101951.41
2023-05-09T00:26:51.528Z,101945.66
2023-05-09T00:29:20.774Z,101950.06
2023-05-09T00:31:48.759Z,101955.94
2023-05-09T00:34:16.749Z,101955.56
2023-05-09T00:36:44.626Z,101949.41
2023-05-09T00:39:12.668Z,101955.78
2023-05-09T00:41:40.634Z,101951.81
2023-05-09T00:44:08.529Z,101935.28
2023-05-09T00:46:37.853Z,101934.06
2023-05-09T00:49:06.311Z,101938.44
2023-05-09T00:51:34.488Z,101925.50
2023-05-09T00:54:02.409Z,101926.31
2023-05-09T00:56:30.454Z,101913.91
2023-05-09T00:58:58.414Z,101915.25
2023-05-09T01:01:26.353Z,101909.28
2023-05-09T01:03:56.514Z,101917.41
2023-05-09T01:06:28.729Z,101919.63
2023-05-09T01:09:00.768Z,101904.88
2023-05-09T01:11:33.709Z,101899.41
2023-05-09T01:14:09.637Z,101904.56
2023-05-09T01:16:41.805Z,101905.84
2023-05-09T01:19:29.008Z,101899.22
2023-05-09T01:21:58.701Z,101890.53
2023-05-09T01:24:35.671Z,101892.53
2023-05-09T01:27:30.263Z,101888.97
2023-05-09T01:29:59.588Z,101894.22
2023-05-09T01:32:29.863Z,101888.06
2023-05-09T01:35:01.348Z,101887.63
2023-05-09T01:37:32.915Z,101886.72
2023-05-09T01:40:07.143Z,101893.94
2023-05-09T01:42:40.712Z,101905.53
2023-05-09T01:45:11.554Z,101904.88
2023-05-09T01:47:41.297Z,101906.31
2023-05-09T01:50:11.455Z,101910.53
2023-05-09T01:52:40.576Z,101902.13
2023-05-09T01:55:09.207Z,101897.41
2023-05-09T01:57:37.782Z,101899.41
2023-05-09T02:00:07.955Z,101885.44
2023-05-09T02:02:37.725Z,101890.16
2023-05-09T02:05:06.636Z,101884.56
2023-05-09T02:07:34.840Z,101884.66
2023-05-09T02:10:04.894Z,101884.31
2023-05-09T02:12:32.865Z,101867.50
2023-05-09T02:15:00.772Z,101869.34
2023-05-09T02:17:30.868Z,101868.22
2023-05-09T02:20:00.242Z,101864.28
2023-05-09T02:22:28.527Z,101864.69
2023-05-09T02:24:56.546Z,101861.72
2023-05-09T02:27:24.851Z,101860.59
2023-05-09T02:29:56.340Z,101867.81
2023-05-09T02:32:25.786Z,101858.56
2023-05-09T02:34:54.557Z,101861.41
2023-05-09T02:37:24.338Z,101862.56
2023-05-09T02:39:52.282Z,101864.19
2023-05-09T02:42:22.697Z,101865.81
2023-05-09T02:44:50.624Z,101858.31
2023-05-09T02:47:18.594Z,101863.66
2023-05-09T02:49:46.516Z,101853.31
2023-05-09T02:52:14.473Z,101862.56
2023-05-09T02:54:43.781Z,101852.69
2023-05-09T02:57:11.852Z,101852.72
2023-05-09T02:59:39.740Z,101854.81
2023-05-09T03:02:07.652Z,101845.94
2023-05-09T03:04:35.955Z,101848.94
2023-05-09T03:07:03.873Z,101839.84
2023-05-09T03:09:31.776Z,101849.31
2023-05-09T03:12:01.099Z,101845.28
2023-05-09T03:14:28.997Z,101844.22
2023-05-09T03:16:56.904Z,101835.41
2023-05-09T03:19:25.224Z,101832.63
2023-05-09T03:21:53.232Z,101826.63
2023-05-09T03:24:21.140Z,101820.16
2023-05-09T03:26:49.015Z,101817.19
2023-05-09T03:29:18.300Z,101819.44
2023-05-09T03:31:46.253Z,101814.31
2023-05-09T03:34:15.408Z,101822.50
2023-05-09T03:36:43.707Z,101813.94
2023-05-09T03:39:11.728Z,101811.78
2023-05-09T03:41:39.672Z,101807.88
2023-05-09T03:44:07.942Z,101811.63
2023-05-09T03:46:37.318Z,101811.78
2023-05-09T03:49:05.426Z,101812.22
2023-05-09T03:51:33.652Z,101812.50
2023-05-09T03:54:01.545Z,101817.38
2023-05-09T03:56:29.451Z,101801.31
2023-05-09T03:58:57.350Z,101805.09
2023-05-09T04:01:25.278Z,101801.88
2023-05-09T04:03:54.658Z,101803.38
2023-05-09T04:06:22.640Z,101794.59
2023-05-09T04:08:50.704Z,101787.66
2023-05-09T04:11:18.618Z,101791.53
2023-05-09T04:13:46.519Z,101787.38
2023-05-09T04:16:14.544Z,101791.56
2023-05-09T04:18:42.864Z,101788.31
2023-05-09T04:21:12.177Z,101793.28
2023-05-09T04:23:40.102Z,101797.94
2023-05-09T04:26:09.691Z,101791.06
2023-05-09T04:28:37.594Z,101790.00
2023-05-09T04:31:06.601Z,101790.03
2023-05-09T04:33:34.718Z,101791.09
2023-05-09T04:36:03.030Z,101797.03
2023-05-09T04:38:32.345Z,101797.03
2023-05-09T04:41:00.232Z,101792.22
2023-05-09T04:43:28.401Z,101796.38
2023-05-09T04:45:56.368Z,101794.66
2023-05-09T04:48:24.283Z,101789.84
2023-05-09T04:50:52.212Z,101782.25
2023-05-09T04:53:20.460Z,101781.41
2023-05-09T04:55:49.773Z,101780.81
2023-05-09T04:58:17.709Z,101781.03
2023-05-09T05:00:45.629Z,101777.06
2023-05-09T05:03:13.618Z,101777.44
2023-05-09T05:05:41.724Z,101767.53
2023-05-09T05:08:09.730Z,101767.53
2023-05-09T05:10:37.668Z,101769.91
2023-05-09T05:13:07.019Z,101769.25
2023-05-09T05:15:34.963Z,101770.97
2023-05-09T05:18:02.890Z,101773.50
2023-05-09T05:20:30.975Z,101777.50
2023-05-09T05:22:58.861Z,101758.59
2023-05-09T05:25:26.933Z,101751.69
2023-05-09T05:27:54.824Z,101755.28
2023-05-09T05:30:24.198Z,101748.88
2023-05-09T05:32:52.145Z,101752.03
2023-05-09T05:35:22.528Z,101743.47
2023-05-09T05:37:50.524Z,101744.19
2023-05-09T05:40:18.508Z,101747.88
2023-05-09T05:42:46.709Z,101732.75
2023-05-09T05:45:14.986Z,101728.16
2023-05-09T05:47:44.561Z,101713.31
2023-05-09T05:50:13.083Z,101715.38
2023-05-09T05:52:41.502Z,101711.13
2023-05-09T05:55:10.045Z,101711.34
2023-05-09T05:57:39.158Z,101716.84
2023-05-09T06:00:10.809Z,101711.25
2023-05-09T06:02:38.796Z,101713.72
2023-05-09T06:05:09.411Z,101714.78
2023-05-09T06:07:37.328Z,101710.91
2023-05-09T06:10:05.872Z,101715.28
2023-05-09T06:12:33.804Z,101716.50
2023-05-09T06:15:01.749Z,101716.22
2023-05-09T06:17:29.812Z,101711.34
2023-05-09T06:19:57.759Z,101704.16
2023-05-09T06:22:27.084Z,101700.78
2023-05-09T06:24:54.997Z,101695.38
2023-05-09T06:27:23.011Z,101694.75
2023-05-09T06:29:52.713Z,101693.56
2023-05-09T06:32:21.183Z,101690.34
2023-05-09T06:34:49.120Z,101688.19
2023-05-09T06:37:17.073Z,101693.00
2023-05-09T06:39:46.375Z,101692.44
2023-05-09T06:42:14.307Z,101681.34
2023-05-09T06:44:43.785Z,101680.41
2023-05-09T06:47:11.873Z,101678.41
2023-05-09T06:49:39.820Z,101669.03
2023-05-09T06:52:07.708Z,101662.16
2023-05-09T06:54:35.612Z,101665.47
2023-05-09T06:57:05.048Z,101656.38
2023-05-09T06:59:33.068Z,101652.44
2023-05-09T07:02:01.208Z,101648.06
2023-05-09T07:04:29.211Z,101649.84
2023-05-09T07:06:57.160Z,101649.50
2023-05-09T07:09:28.002Z,101647.03
2023-05-09T07:11:56.082Z,101646.91
2023-05-09T07:14:25.350Z,101636.44
2023-05-09T07:16:53.314Z,101643.50
2023-05-09T07:19:21.262Z,101632.84
2023-05-09T07:21:49.246Z,101624.59
2023-05-09T07:24:17.198Z,101626.91
2023-05-09T07:26:45.076Z,101624.31
2023-05-09T07:29:12.968Z,101612.78
2023-05-09T07:31:42.260Z,101605.25
2023-05-09T07:34:10.200Z,101602.59
2023-05-09T07:39:11.176Z,101604.97
2023-05-09T07:41:39.104Z,101596.72
2023-05-09T07:44:07.100Z,101589.34
2023-05-09T07:46:35.056Z,101587.81
2023-05-09T07:49:04.419Z,101585.78
2023-05-09T07:51:32.354Z,101581.75
2023-05-09T07:54:00.273Z,101578.63
2023-05-09T07:56:28.196Z,101577.97
2023-05-09T07:58:56.094Z,101572.94
2023-05-09T08:01:24.079Z,101574.91
2023-05-09T08:03:52.086Z,101567.59
2023-05-09T08:06:21.520Z,101563.88
2023-05-09T08:08:49.566Z,101560.94
2023-05-09T08:11:17.504Z,101564.13
2023-05-09T08:13:46.084Z,101554.66
2023-05-09T08:16:14.091Z,101558.59
2023-05-09T08:18:42.031Z,101545.53
2023-05-09T08:21:09.980Z,101546.41
2023-05-09T08:23:40.645Z,101545.06
2023-05-09T08:26:08.621Z,101545.09
2023-05-09T08:28:36.553Z,101547.34
2023-05-09T08:31:04.592Z,101534.63
2023-05-09T08:33:32.724Z,101526.44
2023-05-09T08:36:00.639Z,101530.66
2023-05-09T08:38:28.697Z,101521.06
2023-05-09T08:41:02.999Z,101530.66
2023-05-09T08:43:31.056Z,101526.97
2023-05-09T08:46:00.488Z,101522.19
2023-05-09T08:48:29.850Z,101529.47
2023-05-09T08:50:58.052Z,101516.09
2023-05-09T08:53:26.808Z,101511.53
2023-05-09T08:55:54.878Z,101508.41
2023-05-09T08:58:24.388Z,101503.47
2023-05-09T09:00:52.491Z,101499.69
2023-05-09T09:03:20.580Z,101501.53
2023-05-09T09:05:49.284Z,101502.69
2023-05-09T09:08:17.697Z,101496.13
2023-05-09T09:10:47.514Z,101490.13
2023-05-09T09:13:16.775Z,101480.28
2023-05-09T09:15:47.388Z,101479.72
2023-05-09T09:18:24.873Z,101470.47
2023-05-09T09:20:57.960Z,101475.97
2023-05-09T09:23:27.302Z,101470.03
2023-05-09T09:26:00.332Z,101469.09
2023-05-09T09:28:28.700Z,101470.06
2023-05-09T09:30:58.148Z,101464.91
2023-05-09T09:33:27.158Z,101467.13
2023-05-09T09:35:56.448Z,101458.50
2023-05-09T09:38:25.249Z,101451.31
2023-05-09T09:40:56.747Z,101447.91
2023-05-09T09:43:31.839Z,101450.88
2023-05-09T09:46:04.020Z,101442.88
2023-05-09T09:48:33.987Z,101446.16
2023-05-09T09:51:05.409Z,101432.91
2023-05-09T09:53:40.275Z,101434.56
2023-05-09T09:56:08.586Z,101429.16
2023-05-09T09:58:36.830Z,101422.84
2023-05-09T10:01:10.355Z,101417.38
2023-05-09T10:03:39.575Z,101420.34
2023-05-09T10:06:11.342Z,101415.63
2023-05-09T10:08:39.339Z,101412.72
2023-05-09T10:11:07.459Z,101407.91
2023-05-09T10:13:36.542Z,101411.75
2023-05-09T10:16:05.596Z,101400.94
2023-05-09T10:18:35.839Z,101387.13
2023-05-09T10:21:05.307Z,101387.47
2023-05-09T10:23:36.230Z,101395.16
2023-05-09T10:26:08.391Z,101388.78
2023-05-09T10:28:38.025Z,101368.31
2023-05-09T10:31:09.206Z,101373.66
2023-05-09T10:33:44.635Z,101363.25
2023-05-09T10:36:13.414Z,101355.69
2023-05-09T10:38:41.771Z,101354.13
2023-05-09T10:41:10.348Z,101344.59
2023-05-09T10:43:38.322Z,101348.59
2023-05-09T10:46:06.987Z,101350.94
2023-05-09T10:48:35.119Z,101339.72
2023-05-09T10:51:05.226Z,101344.97
2023-05-09T10:53:43.589Z,101334.59
2023-05-09T10:56:23.823Z,101316.75
2023-05-09T10:58:51.912Z,101325.69
2023-05-09T11:01:30.560Z,101312.91
2023-05-09T11:03:59.977Z,101301.03
2023-05-09T11:06:48.959Z,101295.25
2023-05-09T11:09:28.563Z,101289.31
2023-05-09T11:11:58.114Z,101285.94
2023-05-09T11:14:33.217Z,101288.72
2023-05-09T11:17:04.637Z,101274.47
2023-05-09T11:19:58.164Z,101271.84
2023-05-09T11:22:28.852Z,101274.28
2023-05-09T11:25:10.220Z,101260.44
2023-05-09T11:27:42.468Z,101265.16
2023-05-09T11:30:15.512Z,101266.81
2023-05-09T11:32:46.674Z,101264.00
2023-05-09T11:35:17.111Z,101249.41
2023-05-09T11:37:51.131Z,101247.41
2023-05-09T11:40:19.915Z,101241.50
2023-05-09T11:42:50.051Z,101241.66
2023-05-09T11:45:18.801Z,101240.84
2023-05-09T11:47:47.277Z,101238.66
2023-05-09T11:50:16.536Z,101231.59
2023-05-09T11:52:45.274Z,101235.63
2023-05-09T11:55:15.567Z,101221.69
2023-05-09T11:57:45.696Z,101227.56
2023-05-09T12:00:15.529Z,101236.84
2023-05-09T12:02:45.452Z,101234.34
2023-05-09T12:05:15.100Z,101219.03
2023-05-09T12:07:43.724Z,101237.50
2023-05-09T12:10:15.771Z,101226.53
2023-05-09T12:12:45.153Z,101223.75
2023-05-09T12:15:14.255Z,101213.66
2023-05-09T12:17:43.510Z,101211.81
2023-05-09T12:20:12.584Z,101206.44
2023-05-09T12:22:43.549Z,101213.69
2023-05-09T12:25:12.473Z,101215.66
2023-05-09T12:27:42.661Z,101203.91
2023-05-09T12:30:14.051Z,101202.50
2023-05-09T12:32:42.900Z,101203.91
2023-05-09T12:35:11.491Z,101190.84
2023-05-09T12:37:39.807Z,101197.56
2023-05-09T12:40:12.606Z,101181.09
2023-05-09T12:42:46.078Z,101175.84
2023-05-09T12:45:14.812Z,101192.66
2023-05-09T12:47:43.178Z,101198.53
2023-05-09T12:50:12.691Z,101184.06
2023-05-09T12:52:54.669Z,101187.75
2023-05-09T12:55:30.549Z,101182.75
2023-05-09T12:58:01.521Z,101176.75
2023-05-09T13:00:29.784Z,101175.69
2023-05-09T13:02:57.922Z,101177.31
2023-05-09T13:05:26.281Z,101167.97
2023-05-09T13:07:58.128Z,101170.75
2023-05-09T13:10:28.426Z,101172.06
2023-05-09T13:12:56.530Z,101160.75
2023-05-09T13:15:26.853Z,101164.50
2023-05-09T13:17:55.511Z,101162.09
2023-05-09T13:20:23.670Z,101159.09
2023-05-09T13:22:51.572Z,101152.69
2023-05-09T13:25:20.393Z,101154.53
2023-05-09T13:27:48.305Z,101139.59
2023-05-09T13:30:16.730Z,101138.06
2023-05-09T13:32:47.556Z,101136.91
2023-05-09T13:35:16.299Z,101144.44
2023-05-09T13:37:44.321Z,101125.19
2023-05-09T13:40:13.046Z,101126.31
2023-05-09T13:42:41.248Z,101120.09
2023-05-09T13:45:10.075Z,101118.09
2023-05-09T13:47:38.686Z,101106.75
2023-05-09T13:50:09.534Z,101106.81
2023-05-09T13:52:37.460Z,101100.19
2023-05-09T13:55:05.992Z,101098.34
2023-05-09T13:57:33.925Z,101098.75
2023-05-09T14:00:01.896Z,101096.25
2023-05-09T14:02:29.834Z,101084.88
2023-05-09T14:04:58.913Z,101074.22
2023-05-09T14:07:28.329Z,101068.22
2023-05-09T14:10:10.462Z,101078.13
2023-05-09T14:12:40.715Z,101087.22
2023-05-09T14:15:09.685Z,101080.81
2023-05-09T14:17:37.905Z,101074.25
2023-05-09T14:20:06.716Z,101069.69
2023-05-09T14:22:36.219Z,101075.44
2023-05-09T14:25:04.161Z,101070.22
2023-05-09T14:27:32.070Z,101060.34
2023-05-09T14:30:00.007Z,101057.84
2023-05-09T14:32:27.893Z,101057.84
2023-05-09T14:34:55.838Z,101050.63
2023-05-09T14:37:23.823Z,101040.94
2023-05-09T14:39:53.137Z,101044.28
2023-05-09T14:42:21.526Z,101033.59
2023-05-09T14:44:50.027Z,101030.50
2023-05-09T14:47:17.994Z,101022.84
2023-05-09T14:49:45.942Z,101019.56
2023-05-09T14:52:13.829Z,101017.53
2023-05-09T14:54:41.940Z,101008.00
2023-05-09T14:57:11.696Z,101010.72
2023-05-09T14:59:39.633Z,101011.09
2023-05-09T15:02:08.138Z,101003.75
2023-05-09T15:04:36.087Z,100998.56
2023-05-09T15:07:06.090Z,100991.97
2023-05-09T15:09:34.063Z,100989.13
2023-05-09T15:12:02.034Z,100974.97
2023-05-09T15:14:31.391Z,100989.41
2023-05-09T15:17:02.835Z,100980.56
2023-05-09T15:19:32.586Z,100986.19
2023-05-09T15:22:00.961Z,100981.53
2023-05-09T15:24:28.902Z,100987.25
2023-05-09T15:26:56.910Z,100991.09
2023-05-09T15:29:24.883Z,100977.84
2023-05-09T15:31:55.514Z,100977.69
2023-05-09T15:34:23.500Z,100981.56
2023-05-09T15:36:51.428Z,100978.31
2023-05-09T15:39:19.328Z,100971.81
2023-05-09T15:41:47.222Z,100965.56
2023-05-09T15:44:16.245Z,100961.63
2023-05-09T15:46:44.303Z,100962.06
2023-05-09T15:49:13.607Z,100957.19
2023-05-09T15:51:42.270Z,100960.09
2023-05-09T15:54:10.277Z,100947.97
2023-05-09T15:56:38.190Z,100950.34
2023-05-09T15:59:06.376Z,100950.41
2023-05-09T16:01:35.405Z,100942.56
2023-05-09T16:04:03.550Z,100950.84
2023-05-09T16:06:33.690Z,100944.97
2023-05-09T16:09:02.348Z,100939.88
2023-05-09T16:11:30.251Z,100930.91
2023-05-09T16:13:58.249Z,100933.53
2023-05-09T16:16:26.296Z,100924.72
2023-05-09T16:18:54.320Z,100927.75
2023-05-09T16:21:22.881Z,100918.34
2023-05-09T16:23:52.169Z,100920.41
2023-05-09T16:26:20.127Z,100913.94
2023-05-09T16:28:48.022Z,100915.41
2023-05-09T16:31:15.925Z,100913.47
2023-05-09T16:33:44.006Z,100906.16
2023-05-09T16:36:11.888Z,100915.19
2023-05-09T16:38:39.816Z,100912.69
2023-05-09T16:41:09.092Z,100907.59
2023-05-09T16:43:37.212Z,100908.59
2023-05-09T16:46:05.869Z,100905.13
2023-05-09T16:48:33.848Z,100900.44
2023-05-09T16:51:01.746Z,100911.47
2023-05-09T16:53:29.682Z,100907.09
2023-05-09T16:55:57.741Z,100905.63
2023-05-09T16:58:27.028Z,100901.44
2023-05-09T17:00:55.385Z,100892.53
2023-05-09T17:03:23.324Z,100891.06
2023-05-09T17:05:51.280Z,100893.56
2023-05-09T17:08:19.252Z,100891.31
2023-05-09T17:10:47.128Z,100879.91
2023-05-09T17:13:15.083Z,100877.03
2023-05-09T17:15:45.139Z,100869.19
2023-05-09T17:18:17.066Z,100860.59
2023-05-09T17:20:47.372Z,100863.44
2023-05-09T17:23:15.312Z,100859.00
2023-05-09T17:25:43.531Z,100863.19
2023-05-09T17:28:11.658Z,100871.50
2023-05-09T17:30:40.510Z,100864.28
2023-05-09T17:33:09.833Z,100861.84
2023-05-09T17:35:38.100Z,100865.75
2023-05-09T17:38:06.452Z,100862.94
2023-05-09T17:40:34.354Z,100874.91
2023-05-09T17:43:02.355Z,100867.72
2023-05-09T17:45:30.245Z,100873.16
2023-05-09T17:47:58.642Z,100871.47
2023-05-09T17:50:27.990Z,100871.31
2023-05-09T17:52:57.031Z,100877.25
2023-05-09T17:55:25.059Z,100873.41
2023-05-09T17:57:52.932Z,100870.91
2023-05-09T18:00:21.117Z,100867.78
2023-05-09T18:02:51.119Z,100865.50
2023-05-09T18:05:19.296Z,100871.41
2023-05-09T18:07:49.570Z,100869.59
2023-05-09T18:10:17.680Z,100871.97
2023-05-09T18:12:45.929Z,100869.28
2023-05-09T18:15:14.056Z,100859.16
2023-05-09T18:17:42.019Z,100872.88
2023-05-09T18:20:10.650Z,100865.72
2023-05-09T18:22:38.568Z,100870.31
2023-05-09T18:25:08.734Z,100870.59
2023-05-09T18:27:36.639Z,100868.28
2023-05-09T18:30:04.988Z,100873.44
2023-05-09T18:32:33.197Z,100865.13
2023-05-09T18:35:01.172Z,100864.53
2023-05-09T18:37:29.079Z,100882.06
2023-05-09T18:39:57.185Z,100879.41
2023-05-09T18:42:26.978Z,100870.09
2023-05-09T18:44:56.925Z,100870.56
2023-05-09T18:47:25.057Z,100872.88
2023-05-09T18:49:52.946Z,100875.97
2023-05-09T18:52:22.604Z,100874.72
2023-05-09T18:54:50.555Z,100875.34
2023-05-09T18:57:19.884Z,100876.09
2023-05-09T18:59:51.818Z,100877.06
2023-05-09T19:02:20.595Z,100876.66
2023-05-09T19:04:50.421Z,100870.13
2023-05-09T19:07:18.399Z,100866.47
2023-05-09T19:09:46.299Z,100869.75
2023-05-09T19:12:16.402Z,100878.22
2023-05-09T19:14:44.563Z,100876.56
2023-05-09T19:17:13.819Z,100876.28
2023-05-09T19:19:42.088Z,100879.94
2023-05-09T19:22:10.024Z,100872.91
2023-05-09T19:24:37.918Z,100878.88
2023-05-09T19:27:07.636Z,100875.94
2023-05-09T19:29:35.967Z,100883.22
2023-05-09T19:32:04.993Z,100877.50
2023-05-09T19:34:34.431Z,100870.44
2023-05-09T19:37:02.385Z,100874.50
2023-05-09T19:39:30.590Z,100877.34
2023-05-09T19:42:00.456Z,100876.19
2023-05-09T19:44:28.758Z,100875.63
2023-05-09T19:46:58.534Z,100873.22
2023-05-09T19:49:26.882Z,100881.69
2023-05-09T19:51:56.185Z,100873.59
2023-05-09T19:54:26.486Z,100869.91
2023-05-09T19:56:54.504Z,100875.00
2023-05-09T19:59:22.605Z,100866.09
2023-05-09T20:01:50.529Z,100860.72
2023-05-09T20:04:21.715Z,100870.16
2023-05-09T20:06:49.734Z,100864.41
2023-05-09T20:09:21.013Z,100860.97
2023-05-09T20:11:49.231Z,100866.00
2023-05-09T20:14:17.423Z,100866.16
2023-05-09T20:16:45.528Z,100865.31
2023-05-09T20:19:15.081Z,100861.09
2023-05-09T20:21:43.005Z,100858.69
2023-05-09T20:24:11.836Z,100861.53
2023-05-09T20:26:41.137Z,100857.84
2023-05-09T20:29:09.056Z,100853.34
2023-05-09T20:31:36.957Z,100847.16
2023-05-09T20:34:04.946Z,100846.63
2023-05-09T20:36:32.867Z,100836.56
2023-05-09T20:39:00.842Z,100836.56
2023-05-09T20:41:28.794Z,100836.06
2023-05-09T20:44:03.532Z,100842.56
2023-05-09T20:46:31.668Z,100842.75
2023-05-09T20:48:59.576Z,100835.72
2023-05-09T20:51:27.576Z,100836.50
2023-05-09T20:53:55.472Z,100826.44
2023-05-09T20:56:23.437Z,100825.00
2023-05-09T20:58:51.368Z,100816.84
2023-05-09T21:01:20.668Z,100823.56
2023-05-09T21:03:48.840Z,100823.56
2023-05-09T21:06:16.753Z,100822.50
2023-05-09T21:08:44.697Z,100823.84
2023-05-09T21:11:12.579Z,100823.31
2023-05-09T21:13:40.542Z,100820.78
2023-05-09T21:16:08.612Z,100820.34
2023-05-09T21:18:38.125Z,100816.72
2023-05-09T21:21:08.059Z,100804.16
2023-05-09T21:23:35.967Z,100811.56
2023-05-09T21:26:04.048Z,100805.69
2023-05-09T21:28:32.764Z,100798.78
2023-05-09T21:31:01.820Z,100796.03
2023-05-09T21:33:30.003Z,100789.44
2023-05-09T21:35:59.420Z,100789.81
2023-05-09T21:38:27.297Z,100790.75
2023-05-09T21:40:55.373Z,100786.88
2023-05-09T21:43:23.292Z,100786.03
2023-05-09T21:45:51.200Z,100778.16
2023-05-09T21:48:19.128Z,100784.59
2023-05-09T21:50:47.131Z,100781.44
2023-05-09T21:53:16.384Z,100785.38
2023-05-09T21:55:44.312Z,100777.50
2023-05-09T21:58:12.176Z,100778.31
2023-05-09T22:00:40.216Z,100770.63
2023-05-09T22:03:08.556Z,100772.69
2023-05-09T22:05:36.575Z,100764.28
2023-05-09T22:08:04.632Z,100767.59
2023-05-09T22:10:34.151Z,100767.91
2023-05-09T22:13:02.271Z,100764.63
2023-05-09T22:15:30.375Z,100763.59
2023-05-09T22:17:58.350Z,100767.16
2023-05-09T22:20:26.310Z,100764.38
2023-05-09T22:22:54.241Z,100764.03
2023-05-09T22:25:22.149Z,100756.72
2023-05-09T22:27:51.446Z,100767.69
2023-05-09T22:30:19.385Z,100766.81
2023-05-09T22:32:47.298Z,100766.56
2023-05-09T22:35:15.235Z,100766.06
2023-05-09T22:37:43.151Z,100759.47
2023-05-09T22:40:11.736Z,100755.97
2023-05-09T22:42:39.634Z,100756.72
2023-05-09T22:45:10.138Z,100761.63
2023-05-09T22:47:38.264Z,100758.72
2023-05-09T22:50:07.258Z,100767.34
2023-05-09T22:52:35.185Z,100766.84
2023-05-09T22:55:03.367Z,100773.59
2023-05-09T22:57:31.823Z,100769.94
2023-05-09T22:59:59.739Z,100773.06
2023-05-09T23:02:29.060Z,100782.16
2023-05-09T23:04:57.441Z,100775.22
2023-05-09T23:07:25.437Z,100773.47
2023-05-09T23:09:53.336Z,100763.94
2023-05-09T23:12:21.248Z,100771.47
2023-05-09T23:14:49.227Z,100763.16
2023-05-09T23:17:17.244Z,100761.63
2023-05-09T23:19:47.036Z,100756.59
2023-05-09T23:22:14.937Z,100759.75
2023-05-09T23:24:42.913Z,100764.38
2023-05-09T23:27:10.800Z,100765.44
2023-05-09T23:29:38.705Z,100757.13
2023-05-09T23:32:06.645Z,100763.53
2023-05-09T23:34:36.232Z,100753.28
2023-05-09T23:37:05.687Z,100745.88
2023-05-09T23:39:33.688Z,100745.25
2023-05-09T23:42:01.602Z,100754.19
2023-05-09T23:44:30.141Z,100749.00
2023-05-09T23:46:58.271Z,100746.25
2023-05-09T23:49:26.259Z,100741.97
2023-05-09T23:51:54.156Z,100742.25
2023-05-09T23:54:24.468Z,100757.78
2023-05-09T23:56:52.411Z,100756.94
2023-05-09T23:59:20.292Z,100742.91
